Triana, Alabama
Current Conditions -  °F | °C
As of 12:53 AM on Wednesday 22 Oct 2014 (Local Time) from KHSV Reporting Station
Clear Clear  
Wind Chill: 14°   Ceiling: Unl
Heat Index: 14°   Visibility: 10mi
Dew Point:   Wind: 9mph
Humidity: 64%   Direction: 30°NNE
Pressure: 30.08"   Gusts: NA
Location:  34.6731°N, 86.8135°W
Report Text: KHSV 220553Z AUTO 03008KT 10SM CLR 14/07 A3008 RMK AO2 SLP180 T01390072 10189 20139 402500094 50002
Loading
Personal Weather Stations






























Interactive Weather Map
Tropical Storm Tracking
New forecast layout! Learn more

10-Day Weather Forecast

Advertisements
Track Severe Weather on mobile